sensor_id;sensor_type;location;lat;lon;timestamp;P1;durP1;ratioP1;P2;durP2;ratioP2
63438;SDS011;49567;48.958;8.294;2022-11-15T00:00:42;8.23;;;6.80;;
63438;SDS011;49567;48.958;8.294;2022-11-15T00:03:07;10.60;;;6.73;;
63438;SDS011;49567;48.958;8.294;2022-11-15T00:05:34;7.63;;;6.43;;
63438;SDS011;49567;48.958;8.294;2022-11-15T00:08:00;8.55;;;6.78;;
63438;SDS011;49567;48.958;8.294;2022-11-15T00:10:26;10.43;;;6.88;;
63438;SDS011;49567;48.958;8.294;2022-11-15T00:12:51;9.17;;;6.80;;
63438;SDS011;49567;48.958;8.294;2022-11-15T00:15:16;8.27;;;6.03;;
63438;SDS011;49567;48.958;8.294;2022-11-15T00:17:42;10.33;;;6.73;;
63438;SDS011;49567;48.958;8.294;2022-11-15T00:20:07;9.27;;;6.50;;
63438;SDS011;49567;48.958;8.294;2022-11-15T00:22:33;8.77;;;6.40;;
63438;SDS011;49567;48.958;8.294;2022-11-15T00:24:58;9.25;;;6.30;;
63438;SDS011;49567;48.958;8.294;2022-11-15T00:27:24;8.30;;;6.60;;
63438;SDS011;49567;48.958;8.294;2022-11-15T00:29:49;8.27;;;6.47;;
63438;SDS011;49567;48.958;8.294;2022-11-15T00:32:14;9.73;;;6.37;;
63438;SDS011;49567;48.958;8.294;2022-11-15T00:34:39;7.82;;;6.88;;
63438;SDS011;49567;48.958;8.294;2022-11-15T00:37:06;8.77;;;6.40;;
63438;SDS011;49567;48.958;8.294;2022-11-15T00:39:31;10.05;;;6.32;;
63438;SDS011;49567;48.958;8.294;2022-11-15T00:41:56;10.63;;;6.37;;
63438;SDS011;49567;48.958;8.294;2022-11-15T00:44:22;9.50;;;6.40;;
63438;SDS011;49567;48.958;8.294;2022-11-15T00:46:47;9.23;;;6.70;;
63438;SDS011;49567;48.958;8.294;2022-11-15T00:49:12;7.87;;;6.13;;
63438;SDS011;49567;48.958;8.294;2022-11-15T00:51:37;8.63;;;6.17;;
63438;SDS011;49567;48.958;8.294;2022-11-15T00:54:03;9.37;;;6.37;;
63438;SDS011;49567;48.958;8.294;2022-11-15T00:56:28;11.40;;;6.53;;
63438;SDS011;49567;48.958;8.294;2022-11-15T00:58:53;7.83;;;6.10;;
63438;SDS011;49567;48.958;8.294;2022-11-15T01:01:19;6.83;;;6.00;;
63438;SDS011;49567;48.958;8.294;2022-11-15T01:03:46;8.30;;;6.20;;
63438;SDS011;49567;48.958;8.294;2022-11-15T01:06:11;12.00;;;6.30;;
63438;SDS011;49567;48.958;8.294;2022-11-15T01:08:38;10.13;;;6.97;;
63438;SDS011;49567;48.958;8.294;2022-11-15T01:11:07;12.60;;;7.35;;
63438;SDS011;49567;48.958;8.294;2022-11-15T01:13:35;14.52;;;7.20;;
63438;SDS011;49567;48.958;8.294;2022-11-15T01:16:06;11.70;;;7.03;;
63438;SDS011;49567;48.958;8.294;2022-11-15T01:18:32;8.90;;;6.50;;
63438;SDS011;49567;48.958;8.294;2022-11-15T01:20:57;10.55;;;6.65;;
63438;SDS011;49567;48.958;8.294;2022-11-15T01:23:23;10.03;;;6.37;;
63438;SDS011;49567;48.958;8.294;2022-11-15T01:25:48;7.35;;;5.78;;
63438;SDS011;49567;48.958;8.294;2022-11-15T01:28:13;6.90;;;6.20;;
63438;SDS011;49567;48.958;8.294;2022-11-15T01:30:38;6.60;;;5.93;;
63438;SDS011;49567;48.958;8.294;2022-11-15T01:33:04;6.33;;;5.10;;
63438;SDS011;49567;48.958;8.294;2022-11-15T01:35:29;5.87;;;5.27;;
63438;SDS011;49567;48.958;8.294;2022-11-15T01:37:54;7.73;;;5.47;;
63438;SDS011;49567;48.958;8.294;2022-11-15T01:40:19;6.30;;;5.70;;
63438;SDS011;49567;48.958;8.294;2022-11-15T01:42:45;6.43;;;5.57;;
63438;SDS011;49567;48.958;8.294;2022-11-15T01:45:14;6.30;;;5.70;;
63438;SDS011;49567;48.958;8.294;2022-11-15T01:47:40;7.47;;;5.60;;
63438;SDS011;49567;48.958;8.294;2022-11-15T01:50:12;7.13;;;5.60;;
63438;SDS011;49567;48.958;8.294;2022-11-15T01:52:41;9.90;;;5.25;;
63438;SDS011;49567;48.958;8.294;2022-11-15T01:55:11;6.32;;;4.95;;
63438;SDS011;49567;48.958;8.294;2022-11-15T01:57:43;10.23;;;5.90;;
63438;SDS011;49567;48.958;8.294;2022-11-15T02:00:11;7.30;;;5.65;;
63438;SDS011;49567;48.958;8.294;2022-11-15T02:02:38;5.88;;;5.20;;
63438;SDS011;49567;48.958;8.294;2022-11-15T02:05:04;8.35;;;5.97;;
63438;SDS011;49567;48.958;8.294;2022-11-15T02:07:30;6.60;;;5.80;;
63438;SDS011;49567;48.958;8.294;2022-11-15T02:10:03;6.45;;;5.82;;
63438;SDS011;49567;48.958;8.294;2022-11-15T02:12:32;7.75;;;5.90;;
63438;SDS011;49567;48.958;8.294;2022-11-15T02:14:58;5.70;;;5.20;;
63438;SDS011;49567;48.958;8.294;2022-11-15T02:26:38;7.72;;;5.57;;
63438;SDS011;49567;48.958;8.294;2022-11-15T02:29:32;10.43;;;5.65;;
63438;SDS011;49567;48.958;8.294;2022-11-15T02:32:15;11.48;;;5.70;;
63438;SDS011;49567;48.958;8.294;2022-11-15T02:40:11;7.50;;;5.75;;
63438;SDS011;49567;48.958;8.294;2022-11-15T02:42:46;7.40;;;5.40;;
63438;SDS011;49567;48.958;8.294;2022-11-15T02:45:38;7.65;;;5.60;;
63438;SDS011;49567;48.958;8.294;2022-11-15T02:48:08;7.53;;;6.15;;
63438;SDS011;49567;48.958;8.294;2022-11-15T02:50:36;7.03;;;5.67;;
63438;SDS011;49567;48.958;8.294;2022-11-15T02:53:02;9.27;;;6.60;;
63438;SDS011;49567;48.958;8.294;2022-11-15T03:00:50;11.40;;;7.88;;
63438;SDS011;49567;48.958;8.294;2022-11-15T03:03:46;9.45;;;8.25;;
63438;SDS011;49567;48.958;8.294;2022-11-15T03:06:24;9.45;;;7.47;;
63438;SDS011;49567;48.958;8.294;2022-11-15T03:11:26;10.13;;;7.90;;
63438;SDS011;49567;48.958;8.294;2022-11-15T03:13:58;10.55;;;7.13;;
63438;SDS011;49567;48.958;8.294;2022-11-15T03:16:36;8.55;;;7.05;;
63438;SDS011;49567;48.958;8.294;2022-11-15T03:19:13;10.57;;;7.50;;
63438;SDS011;49567;48.958;8.294;2022-11-15T03:21:45;8.77;;;7.32;;
63438;SDS011;49567;48.958;8.294;2022-11-15T03:24:14;9.90;;;7.50;;
63438;SDS011;49567;48.958;8.294;2022-11-15T03:26:41;10.60;;;7.60;;
63438;SDS011;49567;48.958;8.294;2022-11-15T03:29:16;8.18;;;7.25;;
63438;SDS011;49567;48.958;8.294;2022-11-15T03:31:46;7.63;;;6.63;;
63438;SDS011;49567;48.958;8.294;2022-11-15T03:36:59;8.90;;;7.50;;
63438;SDS011;49567;48.958;8.294;2022-11-15T03:39:24;8.07;;;6.95;;
63438;SDS011;49567;48.958;8.294;2022-11-15T03:50:10;12.32;;;7.25;;
63438;SDS011;49567;48.958;8.294;2022-11-15T03:52:39;8.63;;;7.40;;
63438;SDS011;49567;48.958;8.294;2022-11-15T03:55:06;11.05;;;7.95;;
63438;SDS011;49567;48.958;8.294;2022-11-15T03:57:35;9.83;;;8.07;;
63438;SDS011;49567;48.958;8.294;2022-11-15T04:00:00;11.70;;;8.63;;
63438;SDS011;49567;48.958;8.294;2022-11-15T04:02:25;10.90;;;8.90;;
63438;SDS011;49567;48.958;8.294;2022-11-15T04:04:51;10.20;;;7.43;;
63438;SDS011;49567;48.958;8.294;2022-11-15T04:07:16;13.27;;;8.60;;
63438;SDS011;49567;48.958;8.294;2022-11-15T04:09:41;9.80;;;8.57;;
63438;SDS011;49567;48.958;8.294;2022-11-15T04:12:25;19.13;;;12.05;;
63438;SDS011;49567;48.958;8.294;2022-11-15T04:14:58;14.30;;;11.20;;
63438;SDS011;49567;48.958;8.294;2022-11-15T04:17:44;12.35;;;9.20;;
63438;SDS011;49567;48.958;8.294;2022-11-15T04:20:12;12.80;;;9.80;;
63438;SDS011;49567;48.958;8.294;2022-11-15T04:22:59;13.45;;;8.73;;
63438;SDS011;49567;48.958;8.294;2022-11-15T04:25:45;12.93;;;8.90;;
63438;SDS011;49567;48.958;8.294;2022-11-15T04:28:13;10.23;;;8.05;;
63438;SDS011;49567;48.958;8.294;2022-11-15T04:30:39;8.65;;;7.75;;
63438;SDS011;49567;48.958;8.294;2022-11-15T04:33:04;9.27;;;7.77;;
63438;SDS011;49567;48.958;8.294;2022-11-15T04:35:29;9.02;;;6.68;;
63438;SDS011;49567;48.958;8.294;2022-11-15T04:37:55;10.13;;;6.68;;
63438;SDS011;49567;48.958;8.294;2022-11-15T04:40:22;7.20;;;5.88;;
63438;SDS011;49567;48.958;8.294;2022-11-15T04:42:47;8.87;;;6.03;;
63438;SDS011;49567;48.958;8.294;2022-11-15T04:45:13;7.30;;;5.97;;
63438;SDS011;49567;48.958;8.294;2022-11-15T04:47:38;10.47;;;6.10;;
63438;SDS011;49567;48.958;8.294;2022-11-15T04:50:03;7.67;;;5.73;;
63438;SDS011;49567;48.958;8.294;2022-11-15T04:52:29;7.05;;;5.68;;
63438;SDS011;49567;48.958;8.294;2022-11-15T04:54:54;7.23;;;5.70;;
63438;SDS011;49567;48.958;8.294;2022-11-15T04:57:20;6.80;;;5.93;;
63438;SDS011;49567;48.958;8.294;2022-11-15T04:59:45;9.90;;;7.27;;
63438;SDS011;49567;48.958;8.294;2022-11-15T05:02:11;8.63;;;5.70;;
63438;SDS011;49567;48.958;8.294;2022-11-15T05:04:36;10.00;;;6.93;;
63438;SDS011;49567;48.958;8.294;2022-11-15T05:07:01;7.90;;;6.57;;
63438;SDS011;49567;48.958;8.294;2022-11-15T05:09:29;10.82;;;7.07;;
63438;SDS011;49567;48.958;8.294;2022-11-15T05:11:54;7.13;;;6.00;;
63438;SDS011;49567;48.958;8.294;2022-11-15T05:14:19;10.23;;;6.80;;
63438;SDS011;49567;48.958;8.294;2022-11-15T05:16:44;7.77;;;6.67;;
63438;SDS011;49567;48.958;8.294;2022-11-15T05:19:10;7.63;;;6.20;;
63438;SDS011;49567;48.958;8.294;2022-11-15T05:21:35;10.97;;;6.47;;
63438;SDS011;49567;48.958;8.294;2022-11-15T05:24:01;6.83;;;5.87;;
63438;SDS011;49567;48.958;8.294;2022-11-15T05:26:27;7.60;;;6.80;;
63438;SDS011;49567;48.958;8.294;2022-11-15T05:28:53;9.68;;;6.25;;
63438;SDS011;49567;48.958;8.294;2022-11-15T05:31:23;8.03;;;6.37;;
63438;SDS011;49567;48.958;8.294;2022-11-15T05:33:49;9.70;;;6.15;;
63438;SDS011;49567;48.958;8.294;2022-11-15T05:36:25;7.38;;;6.00;;
63438;SDS011;49567;48.958;8.294;2022-11-15T05:38:51;9.30;;;5.65;;
63438;SDS011;49567;48.958;8.294;2022-11-15T05:41:18;8.88;;;5.68;;
63438;SDS011;49567;48.958;8.294;2022-11-15T05:43:50;8.15;;;6.40;;
63438;SDS011;49567;48.958;8.294;2022-11-15T05:46:16;9.70;;;6.07;;
63438;SDS011;49567;48.958;8.294;2022-11-15T05:48:43;9.05;;;6.03;;
63438;SDS011;49567;48.958;8.294;2022-11-15T05:51:12;8.95;;;6.65;;
63438;SDS011;49567;48.958;8.294;2022-11-15T05:53:41;12.15;;;7.05;;
63438;SDS011;49567;48.958;8.294;2022-11-15T05:56:07;12.48;;;7.75;;
63438;SDS011;49567;48.958;8.294;2022-11-15T05:58:37;10.63;;;7.43;;
63438;SDS011;49567;48.958;8.294;2022-11-15T06:01:03;10.00;;;7.30;;
63438;SDS011;49567;48.958;8.294;2022-11-15T06:03:28;8.60;;;6.63;;
63438;SDS011;49567;48.958;8.294;2022-11-15T06:05:54;9.10;;;6.40;;
63438;SDS011;49567;48.958;8.294;2022-11-15T06:08:19;8.70;;;6.43;;
63438;SDS011;49567;48.958;8.294;2022-11-15T06:10:44;10.73;;;7.70;;
63438;SDS011;49567;48.958;8.294;2022-11-15T06:13:10;10.68;;;8.73;;
63438;SDS011;49567;48.958;8.294;2022-11-15T06:15:35;8.27;;;7.50;;
63438;SDS011;49567;48.958;8.294;2022-11-15T06:18:00;7.72;;;6.82;;
63438;SDS011;49567;48.958;8.294;2022-11-15T06:20:26;11.57;;;7.67;;
63438;SDS011;49567;48.958;8.294;2022-11-15T06:23:00;8.07;;;7.28;;
63438;SDS011;49567;48.958;8.294;2022-11-15T06:25:27;8.85;;;7.18;;
63438;SDS011;49567;48.958;8.294;2022-11-15T06:27:54;8.77;;;7.10;;
63438;SDS011;49567;48.958;8.294;2022-11-15T06:30:21;8.68;;;6.97;;
63438;SDS011;49567;48.958;8.294;2022-11-15T06:32:47;9.13;;;7.45;;
63438;SDS011;49567;48.958;8.294;2022-11-15T06:35:12;9.53;;;7.43;;
63438;SDS011;49567;48.958;8.294;2022-11-15T06:37:38;11.32;;;7.75;;
63438;SDS011;49567;48.958;8.294;2022-11-15T06:40:04;9.43;;;6.85;;
63438;SDS011;49567;48.958;8.294;2022-11-15T06:42:30;10.80;;;6.70;;
63438;SDS011;49567;48.958;8.294;2022-11-15T06:44:55;12.20;;;7.70;;
63438;SDS011;49567;48.958;8.294;2022-11-15T06:47:20;15.33;;;7.53;;
63438;SDS011;49567;48.958;8.294;2022-11-15T06:49:45;14.07;;;7.90;;
63438;SDS011;49567;48.958;8.294;2022-11-15T06:52:10;12.87;;;7.63;;
63438;SDS011;49567;48.958;8.294;2022-11-15T06:54:36;10.10;;;7.57;;
63438;SDS011;49567;48.958;8.294;2022-11-15T06:57:01;12.98;;;7.72;;
63438;SDS011;49567;48.958;8.294;2022-11-15T06:59:28;8.90;;;6.03;;
63438;SDS011;49567;48.958;8.294;2022-11-15T07:01:53;6.43;;;5.72;;
63438;SDS011;49567;48.958;8.294;2022-11-15T07:04:19;6.63;;;5.20;;
63438;SDS011;49567;48.958;8.294;2022-11-15T07:06:46;8.20;;;5.60;;
63438;SDS011;49567;48.958;8.294;2022-11-15T07:09:12;7.80;;;5.30;;
63438;SDS011;49567;48.958;8.294;2022-11-15T07:11:37;8.53;;;5.30;;
63438;SDS011;49567;48.958;8.294;2022-11-15T07:14:03;6.03;;;5.43;;
63438;SDS011;49567;48.958;8.294;2022-11-15T07:16:28;7.53;;;5.90;;
63438;SDS011;49567;48.958;8.294;2022-11-15T07:18:53;7.60;;;5.40;;
63438;SDS011;49567;48.958;8.294;2022-11-15T07:21:18;7.53;;;5.70;;
63438;SDS011;49567;48.958;8.294;2022-11-15T07:23:44;13.30;;;7.47;;
63438;SDS011;49567;48.958;8.294;2022-11-15T07:26:09;8.63;;;7.20;;
63438;SDS011;49567;48.958;8.294;2022-11-15T07:28:35;6.83;;;5.97;;
63438;SDS011;49567;48.958;8.294;2022-11-15T07:31:07;8.27;;;5.40;;
63438;SDS011;49567;48.958;8.294;2022-11-15T07:33:33;7.00;;;5.07;;
63438;SDS011;49567;48.958;8.294;2022-11-15T07:35:59;8.88;;;4.75;;
63438;SDS011;49567;48.958;8.294;2022-11-15T07:38:26;7.67;;;4.93;;
63438;SDS011;49567;48.958;8.294;2022-11-15T07:40:56;6.33;;;4.70;;
63438;SDS011;49567;48.958;8.294;2022-11-15T07:43:25;7.07;;;4.47;;
63438;SDS011;49567;48.958;8.294;2022-11-15T07:45:52;9.60;;;5.18;;
63438;SDS011;49567;48.958;8.294;2022-11-15T07:48:18;7.17;;;4.97;;
63438;SDS011;49567;48.958;8.294;2022-11-15T07:50:44;8.73;;;5.33;;
63438;SDS011;49567;48.958;8.294;2022-11-15T07:53:09;7.83;;;4.97;;
63438;SDS011;49567;48.958;8.294;2022-11-15T07:55:35;8.80;;;5.20;;
63438;SDS011;49567;48.958;8.294;2022-11-15T07:58:04;13.50;;;6.18;;
63438;SDS011;49567;48.958;8.294;2022-11-15T08:00:31;9.07;;;6.55;;
63438;SDS011;49567;48.958;8.294;2022-11-15T08:03:04;15.57;;;8.25;;
63438;SDS011;49567;48.958;8.294;2022-11-15T08:05:35;19.52;;;11.00;;
63438;SDS011;49567;48.958;8.294;2022-11-15T08:08:02;14.45;;;8.77;;
63438;SDS011;49567;48.958;8.294;2022-11-15T08:10:27;15.73;;;9.07;;
63438;SDS011;49567;48.958;8.294;2022-11-15T08:13:12;12.10;;;7.77;;
63438;SDS011;49567;48.958;8.294;2022-11-15T08:15:37;10.73;;;6.28;;
63438;SDS011;49567;48.958;8.294;2022-11-15T08:18:04;8.93;;;6.07;;
63438;SDS011;49567;48.958;8.294;2022-11-15T08:20:40;9.93;;;5.43;;
63438;SDS011;49567;48.958;8.294;2022-11-15T08:23:06;7.35;;;5.70;;
63438;SDS011;49567;48.958;8.294;2022-11-15T08:25:32;8.50;;;5.70;;
63438;SDS011;49567;48.958;8.294;2022-11-15T08:27:59;10.25;;;6.90;;
63438;SDS011;49567;48.958;8.294;2022-11-15T08:30:26;8.32;;;6.50;;
63438;SDS011;49567;48.958;8.294;2022-11-15T08:32:52;8.98;;;6.32;;
63438;SDS011;49567;48.958;8.294;2022-11-15T08:35:19;7.78;;;5.53;;
63438;SDS011;49567;48.958;8.294;2022-11-15T08:37:45;9.07;;;5.72;;
63438;SDS011;49567;48.958;8.294;2022-11-15T08:40:10;7.43;;;5.38;;
63438;SDS011;49567;48.958;8.294;2022-11-15T08:42:36;8.48;;;5.50;;
63438;SDS011;49567;48.958;8.294;2022-11-15T08:45:02;11.30;;;5.95;;
63438;SDS011;49567;48.958;8.294;2022-11-15T08:47:28;8.73;;;5.30;;
63438;SDS011;49567;48.958;8.294;2022-11-15T08:49:53;11.67;;;5.93;;
63438;SDS011;49567;48.958;8.294;2022-11-15T08:52:18;10.93;;;5.90;;
63438;SDS011;49567;48.958;8.294;2022-11-15T08:54:44;7.60;;;5.30;;
63438;SDS011;49567;48.958;8.294;2022-11-15T08:57:09;8.30;;;5.77;;
63438;SDS011;49567;48.958;8.294;2022-11-15T08:59:35;11.03;;;5.90;;
63438;SDS011;49567;48.958;8.294;2022-11-15T09:02:01;10.25;;;6.30;;
63438;SDS011;49567;48.958;8.294;2022-11-15T09:04:27;9.35;;;7.10;;
63438;SDS011;49567;48.958;8.294;2022-11-15T09:06:52;10.63;;;7.65;;
63438;SDS011;49567;48.958;8.294;2022-11-15T09:09:17;9.07;;;7.73;;
63438;SDS011;49567;48.958;8.294;2022-11-15T09:11:43;14.67;;;11.43;;
63438;SDS011;49567;48.958;8.294;2022-11-15T09:14:10;15.47;;;11.00;;
63438;SDS011;49567;48.958;8.294;2022-11-15T09:16:36;14.93;;;11.23;;
63438;SDS011;49567;48.958;8.294;2022-11-15T09:19:01;16.63;;;11.82;;
63438;SDS011;49567;48.958;8.294;2022-11-15T09:21:26;13.23;;;9.43;;
63438;SDS011;49567;48.958;8.294;2022-11-15T09:23:53;13.33;;;8.87;;
63438;SDS011;49567;48.958;8.294;2022-11-15T09:26:19;12.83;;;8.67;;
63438;SDS011;49567;48.958;8.294;2022-11-15T09:28:44;11.98;;;8.70;;
63438;SDS011;49567;48.958;8.294;2022-11-15T09:31:09;9.93;;;7.47;;
63438;SDS011;49567;48.958;8.294;2022-11-15T09:33:35;12.13;;;7.70;;
63438;SDS011;49567;48.958;8.294;2022-11-15T09:36:05;13.55;;;8.02;;
63438;SDS011;49567;48.958;8.294;2022-11-15T09:38:32;13.90;;;7.45;;
63438;SDS011;49567;48.958;8.294;2022-11-15T09:46:20;8.73;;;7.63;;
63438;SDS011;49567;48.958;8.294;2022-11-15T09:49:03;10.38;;;7.55;;
63438;SDS011;49567;48.958;8.294;2022-11-15T09:51:33;15.10;;;8.38;;
63438;SDS011;49567;48.958;8.294;2022-11-15T09:54:45;14.50;;;9.23;;
63438;SDS011;49567;48.958;8.294;2022-11-15T09:59:50;21.23;;;12.90;;
63438;SDS011;49567;48.958;8.294;2022-11-15T10:02:26;17.92;;;12.13;;
63438;SDS011;49567;48.958;8.294;2022-11-15T10:05:14;22.33;;;12.40;;
63438;SDS011;49567;48.958;8.294;2022-11-15T10:07:51;18.58;;;11.60;;
63438;SDS011;49567;48.958;8.294;2022-11-15T10:10:48;25.17;;;15.60;;
63438;SDS011;49567;48.958;8.294;2022-11-15T10:13:22;30.65;;;17.30;;
63438;SDS011;49567;48.958;8.294;2022-11-15T10:15:50;24.70;;;14.32;;
63438;SDS011;49567;48.958;8.294;2022-11-15T10:21:29;18.48;;;13.15;;
63438;SDS011;49567;48.958;8.294;2022-11-15T10:24:09;20.05;;;14.38;;
63438;SDS011;49567;48.958;8.294;2022-11-15T10:26:36;22.05;;;16.73;;
63438;SDS011;49567;48.958;8.294;2022-11-15T10:29:02;13.27;;;10.80;;
63438;SDS011;49567;48.958;8.294;2022-11-15T10:31:28;13.87;;;10.13;;
63438;SDS011;49567;48.958;8.294;2022-11-15T10:36:59;11.32;;;9.88;;
63438;SDS011;49567;48.958;8.294;2022-11-15T10:39:26;12.95;;;10.65;;
63438;SDS011;49567;48.958;8.294;2022-11-15T10:41:55;17.92;;;12.25;;
63438;SDS011;49567;48.958;8.294;2022-11-15T10:46:47;18.90;;;12.40;;
63438;SDS011;49567;48.958;8.294;2022-11-15T10:49:25;19.85;;;12.60;;
63438;SDS011;49567;48.958;8.294;2022-11-15T10:51:54;15.00;;;9.45;;
63438;SDS011;49567;48.958;8.294;2022-11-15T10:57:12;14.27;;;9.57;;
63438;SDS011;49567;48.958;8.294;2022-11-15T10:59:42;9.77;;;7.43;;
63438;SDS011;49567;48.958;8.294;2022-11-15T11:02:25;8.48;;;7.05;;
63438;SDS011;49567;48.958;8.294;2022-11-15T11:04:54;8.85;;;7.13;;
63438;SDS011;49567;48.958;8.294;2022-11-15T11:07:22;17.53;;;7.37;;
63438;SDS011;49567;48.958;8.294;2022-11-15T11:09:56;8.90;;;7.05;;
63438;SDS011;49567;48.958;8.294;2022-11-15T11:12:48;11.93;;;7.55;;
63438;SDS011;49567;48.958;8.294;2022-11-15T11:15:14;11.97;;;6.77;;
63438;SDS011;49567;48.958;8.294;2022-11-15T11:17:57;9.60;;;5.40;;
63438;SDS011;49567;48.958;8.294;2022-11-15T11:20:38;6.20;;;4.35;;
63438;SDS011;49567;48.958;8.294;2022-11-15T11:29:19;3.87;;;3.53;;
63438;SDS011;49567;48.958;8.294;2022-11-15T11:35:20;3.47;;;3.17;;
63438;SDS011;49567;48.958;8.294;2022-11-15T11:37:59;3.55;;;3.25;;
63438;SDS011;49567;48.958;8.294;2022-11-15T11:40:43;4.87;;;3.23;;
63438;SDS011;49567;48.958;8.294;2022-11-15T11:46:30;3.05;;;2.78;;
63438;SDS011;49567;48.958;8.294;2022-11-15T11:48:52;3.75;;;2.90;;
63438;SDS011;49567;48.958;8.294;2022-11-15T11:51:33;5.35;;;3.35;;
63438;SDS011;49567;48.958;8.294;2022-11-15T11:54:05;4.65;;;2.75;;
63438;SDS011;49567;48.958;8.294;2022-11-15T11:56:36;4.07;;;3.08;;
63438;SDS011;49567;48.958;8.294;2022-11-15T11:59:25;5.53;;;3.22;;
63438;SDS011;49567;48.958;8.294;2022-11-15T12:02:00;4.38;;;3.10;;
63438;SDS011;49567;48.958;8.294;2022-11-15T12:04:38;3.47;;;3.10;;
63438;SDS011;49567;48.958;8.294;2022-11-15T12:07:16;3.08;;;2.78;;
63438;SDS011;49567;48.958;8.294;2022-11-15T12:09:55;4.38;;;2.90;;
63438;SDS011;49567;48.958;8.294;2022-11-15T12:15:27;3.80;;;2.85;;
63438;SDS011;49567;48.958;8.294;2022-11-15T12:17:57;3.88;;;3.20;;
63438;SDS011;49567;48.958;8.294;2022-11-15T12:21:07;3.13;;;2.92;;
63438;SDS011;49567;48.958;8.294;2022-11-15T12:23:20;5.70;;;5.03;;
63438;SDS011;49567;48.958;8.294;2022-11-15T12:36:02;5.83;;;3.00;;
63438;SDS011;49567;48.958;8.294;2022-11-15T12:40:02;4.85;;;2.88;;
63438;SDS011;49567;48.958;8.294;2022-11-15T12:41:27;3.03;;;2.83;;
63438;SDS011;49567;48.958;8.294;2022-11-15T12:43:54;6.07;;;4.03;;
63438;SDS011;49567;48.958;8.294;2022-11-15T12:48:48;3.35;;;3.05;;
63438;SDS011;49567;48.958;8.294;2022-11-15T12:51:22;3.67;;;3.38;;
63438;SDS011;49567;48.958;8.294;2022-11-15T13:02:41;3.28;;;2.90;;
63438;SDS011;49567;48.958;8.294;2022-11-15T13:28:00;5.18;;;3.30;;
63438;SDS011;49567;48.958;8.294;2022-11-15T13:30:48;4.23;;;3.50;;
63438;SDS011;49567;48.958;8.294;2022-11-15T13:33:17;5.78;;;3.83;;
63438;SDS011;49567;48.958;8.294;2022-11-15T13:35:51;3.95;;;3.45;;
63438;SDS011;49567;48.958;8.294;2022-11-15T13:38:27;4.55;;;3.78;;
63438;SDS011;49567;48.958;8.294;2022-11-15T13:40:54;4.60;;;3.25;;
63438;SDS011;49567;48.958;8.294;2022-11-15T13:46:32;6.07;;;3.80;;
63438;SDS011;49567;48.958;8.294;2022-11-15T13:48:40;6.57;;;3.47;;
63438;SDS011;49567;48.958;8.294;2022-11-15T13:51:09;4.38;;;3.55;;
63438;SDS011;49567;48.958;8.294;2022-11-15T13:53:39;3.20;;;2.90;;
63438;SDS011;49567;48.958;8.294;2022-11-15T13:56:11;5.30;;;4.18;;
63438;SDS011;49567;48.958;8.294;2022-11-15T13:58:37;8.00;;;5.47;;
63438;SDS011;49567;48.958;8.294;2022-11-15T14:01:04;8.75;;;5.50;;
63438;SDS011;49567;48.958;8.294;2022-11-15T14:03:32;7.20;;;4.32;;
63438;SDS011;49567;48.958;8.294;2022-11-15T14:06:10;8.13;;;5.18;;
63438;SDS011;49567;48.958;8.294;2022-11-15T14:08:37;6.88;;;5.05;;
63438;SDS011;49567;48.958;8.294;2022-11-15T14:11:17;6.38;;;4.80;;
63438;SDS011;49567;48.958;8.294;2022-11-15T14:16:38;10.55;;;5.80;;
63438;SDS011;49567;48.958;8.294;2022-11-15T14:19:12;8.32;;;5.05;;
63438;SDS011;49567;48.958;8.294;2022-11-15T14:24:39;7.20;;;4.55;;
63438;SDS011;49567;48.958;8.294;2022-11-15T14:29:43;5.45;;;4.00;;
63438;SDS011;49567;48.958;8.294;2022-11-15T14:32:17;7.60;;;4.25;;
63438;SDS011;49567;48.958;8.294;2022-11-15T14:34:46;7.70;;;4.60;;
63438;SDS011;49567;48.958;8.294;2022-11-15T14:37:16;5.78;;;4.20;;
63438;SDS011;49567;48.958;8.294;2022-11-15T14:39:45;8.57;;;3.90;;
63438;SDS011;49567;48.958;8.294;2022-11-15T14:42:11;5.73;;;4.77;;
63438;SDS011;49567;48.958;8.294;2022-11-15T14:44:36;8.47;;;4.80;;
63438;SDS011;49567;48.958;8.294;2022-11-15T14:47:01;9.53;;;5.50;;
63438;SDS011;49567;48.958;8.294;2022-11-15T14:49:27;9.43;;;5.23;;
63438;SDS011;49567;48.958;8.294;2022-11-15T14:51:52;10.57;;;4.95;;
63438;SDS011;49567;48.958;8.294;2022-11-15T14:54:17;8.80;;;4.80;;
63438;SDS011;49567;48.958;8.294;2022-11-15T14:56:42;7.03;;;3.97;;
63438;SDS011;49567;48.958;8.294;2022-11-15T14:59:08;6.87;;;4.10;;
63438;SDS011;49567;48.958;8.294;2022-11-15T15:01:33;7.20;;;3.43;;
63438;SDS011;49567;48.958;8.294;2022-11-15T15:03:58;9.43;;;3.60;;
63438;SDS011;49567;48.958;8.294;2022-11-15T15:06:24;5.37;;;3.97;;
63438;SDS011;49567;48.958;8.294;2022-11-15T15:08:50;11.27;;;7.67;;
63438;SDS011;49567;48.958;8.294;2022-11-15T15:11:21;16.60;;;8.13;;
63438;SDS011;49567;48.958;8.294;2022-11-15T15:13:48;15.20;;;8.15;;
63438;SDS011;49567;48.958;8.294;2022-11-15T15:16:14;15.90;;;10.15;;
63438;SDS011;49567;48.958;8.294;2022-11-15T15:18:42;6.93;;;5.00;;
63438;SDS011;49567;48.958;8.294;2022-11-15T15:21:29;10.25;;;4.80;;
63438;SDS011;49567;48.958;8.294;2022-11-15T15:23:56;4.50;;;3.78;;
63438;SDS011;49567;48.958;8.294;2022-11-15T15:26:22;5.38;;;3.75;;
63438;SDS011;49567;48.958;8.294;2022-11-15T15:28:48;8.13;;;4.38;;
63438;SDS011;49567;48.958;8.294;2022-11-15T15:31:16;10.88;;;4.43;;
63438;SDS011;49567;48.958;8.294;2022-11-15T15:33:43;9.68;;;4.70;;
63438;SDS011;49567;48.958;8.294;2022-11-15T15:36:10;9.80;;;4.93;;
63438;SDS011;49567;48.958;8.294;2022-11-15T15:38:37;11.05;;;6.00;;
63438;SDS011;49567;48.958;8.294;2022-11-15T15:41:07;15.53;;;8.27;;
63438;SDS011;49567;48.958;8.294;2022-11-15T15:43:34;14.73;;;7.68;;
63438;SDS011;49567;48.958;8.294;2022-11-15T15:46:00;15.53;;;7.83;;
63438;SDS011;49567;48.958;8.294;2022-11-15T15:48:25;13.18;;;7.47;;
63438;SDS011;49567;48.958;8.294;2022-11-15T15:50:50;11.10;;;6.33;;
63438;SDS011;49567;48.958;8.294;2022-11-15T15:53:15;10.13;;;6.80;;
63438;SDS011;49567;48.958;8.294;2022-11-15T15:55:42;9.35;;;6.72;;
63438;SDS011;49567;48.958;8.294;2022-11-15T15:58:08;11.05;;;7.18;;
63438;SDS011;49567;48.958;8.294;2022-11-15T16:00:33;14.83;;;7.67;;
63438;SDS011;49567;48.958;8.294;2022-11-15T16:02:58;12.57;;;8.53;;
63438;SDS011;49567;48.958;8.294;2022-11-15T16:05:24;11.23;;;8.00;;
63438;SDS011;49567;48.958;8.294;2022-11-15T16:07:49;14.07;;;8.23;;
63438;SDS011;49567;48.958;8.294;2022-11-15T16:12:45;15.15;;;9.75;;
63438;SDS011;49567;48.958;8.294;2022-11-15T16:15:11;15.02;;;9.07;;
63438;SDS011;49567;48.958;8.294;2022-11-15T16:17:38;15.27;;;10.17;;
63438;SDS011;49567;48.958;8.294;2022-11-15T16:20:06;17.80;;;10.52;;
63438;SDS011;49567;48.958;8.294;2022-11-15T16:22:31;17.77;;;11.00;;
63438;SDS011;49567;48.958;8.294;2022-11-15T16:24:57;16.63;;;11.30;;
63438;SDS011;49567;48.958;8.294;2022-11-15T16:27:22;18.80;;;11.85;;
63438;SDS011;49567;48.958;8.294;2022-11-15T16:29:48;18.17;;;10.57;;
63438;SDS011;49567;48.958;8.294;2022-11-15T16:32:14;15.40;;;11.38;;
63438;SDS011;49567;48.958;8.294;2022-11-15T16:34:40;16.35;;;10.43;;
63438;SDS011;49567;48.958;8.294;2022-11-15T16:37:05;22.77;;;14.33;;
63438;SDS011;49567;48.958;8.294;2022-11-15T16:39:33;21.17;;;13.20;;
63438;SDS011;49567;48.958;8.294;2022-11-15T16:41:58;19.53;;;12.93;;
63438;SDS011;49567;48.958;8.294;2022-11-15T16:44:24;16.50;;;10.95;;
63438;SDS011;49567;48.958;8.294;2022-11-15T16:46:50;16.63;;;9.50;;
63438;SDS011;49567;48.958;8.294;2022-11-15T16:49:16;14.40;;;9.87;;
63438;SDS011;49567;48.958;8.294;2022-11-15T16:51:44;14.70;;;9.75;;
63438;SDS011;49567;48.958;8.294;2022-11-15T16:54:10;21.95;;;14.63;;
63438;SDS011;49567;48.958;8.294;2022-11-15T16:56:36;20.53;;;14.23;;